Time;durP1;ratioP1;P1;durP2;ratioP2;P2;SDS_P1;SDS_P2;PMS_P1;PMS_P2;Temp;Humidity;BMP_temperature;BMP_pressure;BME280_temperature;BME280_humidity;BME280_pressure;Samples;Min_cycle;Max_cycle;Signal;HPM_P1;HPM_P2
2022/04/27 00:01:03;;;;;;;5.38;3.50;;;18.70;79.00;;;;;;4994897;28;98205;-73
2022/04/27 00:03:34;;;;;;;4.47;3.65;;;18.70;79.00;;;;;;4998372;28;96893;-73
2022/04/27 00:06:05;;;;;;;5.55;3.20;;;18.80;79.10;;;;;;4973079;28;98907;-72
2022/04/27 00:08:37;;;;;;;4.07;3.08;;;18.90;77.30;;;;;;4994181;28;96755;-73
2022/04/27 00:11:08;;;;;;;4.10;3.28;;;18.90;79.10;;;;;;4999698;28;96707;-72
2022/04/27 00:13:40;;;;;;;5.80;3.47;;;18.90;79.10;;;;;;5000402;28;96178;-72
2022/04/27 00:16:11;;;;;;;5.25;3.00;;;19.00;79.00;;;;;;4975805;28;95905;-72
2022/04/27 00:18:42;;;;;;;5.00;3.20;;;19.00;79.00;;;;;;4994722;28;96092;-73
2022/04/27 00:21:14;;;;;;;5.35;3.53;;;19.00;79.00;;;;;;4988466;28;95699;-72
2022/04/27 00:23:45;;;;;;;4.43;3.30;;;19.00;78.90;;;;;;4994925;28;95854;-71
2022/04/27 00:26:17;;;;;;;3.53;3.20;;;19.10;78.80;;;;;;4998823;28;96423;-71
2022/04/27 00:28:47;;;;;;;8.93;3.53;;;19.10;78.80;;;;;;5000404;28;95777;-72
2022/04/27 00:31:18;;;;;;;4.53;3.40;;;19.10;78.70;;;;;;4986372;28;95843;-72
2022/04/27 00:33:50;;;;;;;4.35;3.45;;;19.10;78.60;;;;;;4978576;28;98390;-72
2022/04/27 00:36:20;;;;;;;5.27;3.60;;;19.20;78.60;;;;;;4996898;28;96470;-72
2022/04/27 00:38:51;;;;;;;7.07;3.83;;;19.20;78.50;;;;;;4996742;28;96931;-72
2022/04/27 00:41:22;;;;;;;7.90;3.38;;;19.20;78.40;;;;;;4994570;28;95824;-71
2022/04/27 00:43:54;;;;;;;4.30;3.25;;;19.20;78.30;;;;;;5000080;28;96405;-72
2022/04/27 00:46:24;;;;;;;;;;;19.20;78.20;;;;;;4983868;28;97215;-72
2022/04/27 00:48:54;;;;;;;5.35;3.40;;;19.30;78.20;;;;;;5006469;28;95603;-72
2022/04/27 00:51:26;;;;;;;4.53;3.20;;;19.30;78.70;;;;;;5004320;28;98720;-71
2022/04/27 00:53:59;;;;;;;4.55;3.13;;;19.30;78.00;;;;;;4985156;28;96488;-72
2022/04/27 00:56:30;;;;;;;4.05;3.20;;;19.40;78.00;;;;;;4988118;28;97762;-73
2022/04/27 00:59:01;;;;;;;3.50;3.05;;;19.40;77.90;;;;;;4982004;28;95849;-72
2022/04/27 01:01:31;;;;;;;5.25;3.60;;;19.40;77.90;;;;;;4993289;28;95870;-72
2022/04/27 01:04:01;;;;;;;3.92;2.80;;;19.40;78.40;;;;;;4986958;28;98389;-72
2022/04/27 01:06:32;;;;;;;4.55;3.08;;;19.50;77.80;;;;;;5003485;28;96159;-72
2022/04/27 01:09:04;;;;;;;3.85;3.22;;;19.40;77.70;;;;;;5000663;28;96507;-71
2022/04/27 01:11:35;;;;;;;5.40;2.80;;;19.50;77.70;;;;;;5002324;28;95913;-72
2022/04/27 01:14:06;;;;;;;5.32;3.00;;;19.50;77.60;;;;;;5001451;28;97122;-69
2022/04/27 01:16:38;;;;;;;3.33;2.60;;;19.60;77.60;;;;;;4992739;28;97709;-69
2022/04/27 01:19:09;;;;;;;4.85;2.40;;;19.60;77.00;;;;;;5007127;28;95723;-69
2022/04/27 01:21:42;;;;;;;3.65;2.33;;;19.60;76.90;;;;;;4993804;28;96348;-69
2022/04/27 01:24:12;;;;;;;4.05;3.15;;;19.60;77.10;;;;;;5002198;28;98266;-73
2022/04/27 01:26:44;;;;;;;5.60;2.80;;;19.60;76.70;;;;;;4972021;28;97872;-72
2022/04/27 01:29:17;;;;;;;6.50;3.15;;;19.70;71.30;;;;;;4985244;28;97023;-70
2022/04/27 01:31:48;;;;;;;3.65;2.65;;;19.70;76.80;;;;;;4970642;28;98311;-72
2022/04/27 01:34:20;;;;;;;7.97;3.42;;;19.70;76.60;;;;;;5001579;28;99058;-71
2022/04/27 01:37:59;;;;;;;4.70;2.72;;;19.70;76.70;;;;;;4986178;28;95443;-71
2022/04/27 01:39:44;;;;;;;6.22;3.33;;;19.70;76.60;;;;;;4991892;28;96181;-70
2022/04/27 01:42:15;;;;;;;5.63;2.78;;;19.70;76.70;;;;;;4987517;28;95355;-71
2022/04/27 01:44:46;;;;;;;3.63;2.83;;;19.80;76.70;;;;;;5001365;28;96631;-70
2022/04/27 01:47:17;;;;;;;8.02;2.85;;;19.80;76.70;;;;;;4994788;28;97756;-70
2022/04/27 01:49:52;;;;;;;3.10;2.78;;;19.80;76.50;;;;;;4999614;28;95939;-70
2022/04/27 01:55:12;;;;;;;4.22;2.75;;;19.80;76.40;;;;;;5001230;28;95809;-70
2022/04/27 01:57:42;;;;;;;5.07;3.10;;;19.80;76.40;;;;;;4995677;28;97113;-70
2022/04/27 02:00:15;;;;;;;3.38;2.90;;;19.90;71.60;;;;;;4984162;28;96084;-71
2022/04/27 02:02:47;;;;;;;3.45;2.78;;;19.80;76.30;;;;;;4984242;28;96494;-75
2022/04/27 02:05:18;;;;;;;3.85;2.58;;;19.80;76.40;;;;;;4998576;28;95815;-71
2022/04/27 02:07:49;;;;;;;;;;;19.80;76.40;;;;;;4998628;28;98387;-72
2022/04/27 02:10:21;;;;;;;2.72;2.47;;;19.90;76.40;;;;;;4988575;28;95884;-71
2022/04/27 02:12:51;;;;;;;2.80;2.55;;;19.90;76.30;;;;;;5001172;28;95861;-72
2022/04/27 02:15:24;;;;;;;3.53;2.80;;;19.90;76.40;;;;;;4987215;28;96330;-71
2022/04/27 02:18:10;;;;;;;4.28;2.92;;;19.90;76.40;;;;;;5001450;28;102384;-73
2022/04/27 02:20:42;;;;;;;5.05;2.75;;;19.90;76.40;;;;;;5001173;28;95485;-71
2022/04/27 02:23:13;;;;;;;3.55;2.38;;;19.90;76.50;;;;;;4991912;28;96129;-72
2022/04/27 02:25:44;;;;;;;3.65;3.00;;;19.90;76.50;;;;;;5002429;28;98998;-72
2022/04/27 02:28:17;;;;;;;3.65;3.15;;;20.00;76.60;;;;;;5007870;28;95688;-71
2022/04/27 02:30:48;;;;;;;2.78;2.47;;;20.00;76.70;;;;;;4993797;27;95880;-72
2022/04/27 02:33:19;;;;;;;3.38;2.95;;;20.00;76.60;;;;;;5005091;28;96042;-71
2022/04/27 02:35:50;;;;;;;3.15;2.60;;;20.10;76.60;;;;;;4994320;28;97998;-70
2022/04/27 02:38:21;;;;;;;3.33;2.72;;;20.10;76.60;;;;;;4993649;28;96108;-70
2022/04/27 02:40:57;;;;;;;5.50;2.97;;;20.10;76.70;;;;;;4995230;28;96451;-69
2022/04/27 02:43:28;;;;;;;3.25;2.70;;;20.10;76.80;;;;;;5010636;28;96234;-71
2022/04/27 02:45:59;;;;;;;4.60;2.70;;;20.10;76.70;;;;;;4986088;28;98976;-71
2022/04/27 02:48:31;;;;;;;4.20;2.97;;;20.10;76.70;;;;;;5000145;28;97547;-71
2022/04/27 02:53:55;;;;;;;4.65;2.70;;;20.20;76.70;;;;;;5000964;28;95862;-71
2022/04/27 02:56:25;;;;;;;5.68;2.60;;;20.10;76.70;;;;;;4985496;28;98716;-71
2022/04/27 02:58:55;;;;;;;3.38;3.08;;;20.10;76.60;;;;;;4985983;28;97512;-71
2022/04/27 03:01:26;;;;;;;5.75;2.78;;;20.10;76.60;;;;;;4999565;28;96415;-72
2022/04/27 03:03:58;;;;;;;4.03;2.80;;;20.20;76.80;;;;;;4989971;28;95567;-71
2022/04/27 03:06:29;;;;;;;3.97;3.38;;;20.10;76.80;;;;;;4983481;28;98113;-71
2022/04/27 03:09:00;;;;;;;5.90;3.42;;;20.20;77.20;;;;;;5001278;28;96264;-68
2022/04/27 03:11:30;;;;;;;6.00;3.15;;;20.10;77.00;;;;;;5004885;28;96117;-69
2022/04/27 03:14:17;;;;;;;4.00;2.75;;;20.20;76.60;;;;;;5004709;28;97852;-70
2022/04/27 03:16:53;;;;;;;4.85;3.00;;;20.30;76.40;;;;;;4996537;28;98474;-71
2022/04/27 03:19:25;;;;;;;3.95;3.28;;;20.40;76.50;;;;;;4991202;28;97255;-71
2022/04/27 03:21:57;;;;;;;3.67;2.80;;;20.60;76.50;;;;;;4989254;28;95794;-70
2022/04/27 03:24:26;;;;;;;;;;;20.60;76.30;;;;;;5002296;28;96001;-70
2022/04/27 03:27:07;;;;;;;3.00;2.60;;;20.70;75.40;;;;;;5004169;28;98784;-70
2022/04/27 03:29:38;;;;;;;3.20;2.90;;;20.70;75.90;;;;;;5000423;28;97179;-70
2022/04/27 03:32:11;;;;;;;3.53;2.90;;;20.90;75.90;;;;;;4960133;28;96187;-70
2022/04/27 03:34:49;;;;;;;4.05;2.85;;;20.90;75.60;;;;;;5004462;28;95427;-70
2022/04/27 03:37:25;;;;;;;3.20;2.97;;;21.00;75.50;;;;;;5002902;28;96444;-70
2022/04/27 03:39:56;;;;;;;4.13;3.47;;;21.00;76.10;;;;;;4999183;28;97806;-71
2022/04/27 03:42:29;;;;;;;3.83;3.53;;;21.10;74.80;;;;;;4985104;28;96595;-70
2022/04/27 03:45:04;;;;;;;3.35;3.05;;;21.10;73.80;;;;;;5004403;28;95837;-70
2022/04/27 03:47:40;;;;;;;4.95;3.50;;;21.10;75.00;;;;;;5005888;28;104032;-71
2022/04/27 03:50:12;;;;;;;3.40;3.10;;;21.20;75.10;;;;;;5004018;28;95982;-71
2022/04/27 03:52:48;;;;;;;3.55;3.10;;;21.30;74.80;;;;;;4975421;28;96000;-70
2022/04/27 03:55:20;;;;;;;3.67;3.10;;;21.40;74.80;;;;;;4990968;28;96015;-71
2022/04/27 03:57:50;;;;;;;4.28;3.15;;;21.40;74.50;;;;;;4979775;28;96237;-72
2022/04/27 04:00:20;;;;;;;4.13;3.15;;;21.40;74.40;;;;;;4982728;28;97505;-71
2022/04/27 04:03:01;;;;;;;3.58;3.10;;;21.50;74.40;;;;;;5003913;28;96264;-72
2022/04/27 04:05:35;;;;;;;5.00;3.28;;;21.50;74.50;;;;;;5006746;28;96007;-71
2022/04/27 04:08:07;;;;;;;3.38;2.42;;;21.60;74.00;;;;;;5004639;28;97175;-71
2022/04/27 04:10:38;;;;;;;4.22;3.67;;;21.70;73.60;;;;;;5004130;28;98537;-70
2022/04/27 04:13:11;;;;;;;4.78;2.80;;;21.60;70.40;;;;;;4985261;28;95761;-73
2022/04/27 04:16:14;;;;;;;4.60;3.33;;;21.60;73.70;;;;;;4977760;27;95313;-71
2022/04/27 04:18:54;;;;;;;2.63;2.42;;;21.60;70.70;;;;;;5002399;28;98459;-70
2022/04/27 04:21:46;;;;;;;4.28;2.88;;;21.60;72.30;;;;;;5000006;28;95879;-71
2022/04/27 04:24:36;;;;;;;3.17;2.88;;;21.60;70.70;;;;;;5005621;28;96172;-71
2022/04/27 04:29:57;;;;;;;2.88;2.67;;;21.50;69.40;;;;;;4987214;28;97017;-71
2022/04/27 04:32:28;;;;;;;3.40;2.80;;;21.50;70.50;;;;;;4978080;28;95947;-71
2022/04/27 04:35:13;;;;;;;2.78;2.55;;;21.50;71.30;;;;;;4994972;28;96638;-69
2022/04/27 04:37:45;;;;;;;4.43;3.00;;;21.40;73.10;;;;;;5004119;28;96369;-72
2022/04/27 04:40:19;;;;;;;4.15;3.45;;;21.30;74.10;;;;;;5004177;28;97997;-71
2022/04/27 04:42:50;;;;;;;3.55;3.05;;;21.20;77.10;;;;;;4988778;28;95991;-71
2022/04/27 04:45:24;;;;;;;3.15;2.85;;;21.20;78.40;;;;;;4981318;28;95358;-71
2022/04/27 04:48:16;;;;;;;3.47;2.95;;;21.20;78.10;;;;;;4998760;28;95749;-72
2022/04/27 04:51:06;;;;;;;3.03;2.83;;;21.20;78.00;;;;;;4964228;28;95834;-71
2022/04/27 04:54:10;;;;;;;3.08;2.80;;;21.20;78.90;;;;;;5004609;28;96113;-71
2022/04/27 04:56:55;;;;;;;3.45;3.15;;;21.20;78.40;;;;;;5002236;28;95406;-71
2022/04/27 04:59:36;;;;;;;;;;;21.20;77.90;;;;;;5001408;28;95982;-72
2022/04/27 05:02:06;;;;;;;4.00;3.25;;;21.20;76.90;;;;;;4997833;28;97634;-72
2022/04/27 05:04:52;;;;;;;3.40;2.92;;;21.10;76.30;;;;;;5000650;28;98492;-71
2022/04/27 05:07:49;;;;;;;4.03;3.63;;;21.20;78.00;;;;;;4985954;28;96322;-71
2022/04/27 05:10:37;;;;;;;3.30;3.00;;;21.20;75.70;;;;;;4987914;28;96355;-71
2022/04/27 05:13:14;;;;;;;4.75;3.08;;;21.20;73.60;;;;;;5004304;28;96575;-71
2022/04/27 05:15:52;;;;;;;4.07;3.25;;;21.30;74.10;;;;;;4976444;28;98204;-71
2022/04/27 05:18:42;;;;;;;3.83;2.90;;;21.20;74.50;;;;;;4987147;28;96015;-71
2022/04/27 05:21:46;;;;;;;3.85;2.83;;;21.30;73.90;;;;;;4980491;28;95865;-71
2022/04/27 05:24:34;;;;;;;5.43;3.15;;;21.20;71.50;;;;;;5003688;28;96086;-71
2022/04/27 05:27:24;;;;;;;3.80;3.45;;;21.10;72.00;;;;;;4986912;28;97401;-70
2022/04/27 05:33:23;;;;;;;5.70;3.55;;;21.20;72.90;;;;;;4999444;28;96002;-70
2022/04/27 05:36:17;;;;;;;3.90;3.60;;;21.30;74.20;;;;;;4998784;28;95969;-70
2022/04/27 05:39:21;;;;;;;4.28;3.80;;;21.30;74.20;;;;;;4974241;28;96158;-73
2022/04/27 05:42:31;;;;;;;6.78;4.20;;;21.40;73.60;;;;;;5000782;28;95733;-73
2022/04/27 05:45:22;;;;;;;4.10;3.70;;;21.30;74.70;;;;;;5007649;28;96889;-72
2022/04/27 05:48:08;;;;;;;4.63;3.85;;;21.30;74.60;;;;;;4995842;28;98121;-75
2022/04/27 05:50:44;;;;;;;5.93;4.20;;;21.30;75.10;;;;;;4996706;28;97476;-71
2022/04/27 05:53:41;;;;;;;6.22;3.45;;;21.40;75.70;;;;;;5012520;28;96191;-74
2022/04/27 05:56:30;;;;;;;6.55;3.75;;;21.60;74.90;;;;;;5003766;28;95998;-73
2022/04/27 05:59:13;;;;;;;4.68;3.85;;;21.70;73.70;;;;;;5005563;28;96550;-72
2022/04/27 06:02:05;;;;;;;4.30;3.35;;;21.80;74.80;;;;;;4984485;28;95878;-71
2022/04/27 06:04:37;;;;;;;5.20;4.22;;;21.80;74.20;;;;;;5001861;28;95743;-71
2022/04/27 06:07:09;;;;;;;4.55;3.60;;;21.80;73.80;;;;;;4975257;28;96322;-73
2022/04/27 06:09:41;;;;;;;5.40;4.22;;;21.80;73.90;;;;;;5001095;28;96150;-73
2022/04/27 06:12:34;;;;;;;5.68;4.68;;;21.70;74.00;;;;;;4998111;28;97521;-72
2022/04/27 06:15:26;;;;;;;6.85;3.97;;;21.60;75.10;;;;;;4980127;28;96375;-72
2022/04/27 06:18:01;;;;;;;7.43;4.50;;;21.50;76.60;;;;;;4987073;28;95495;-71
2022/04/27 06:20:35;;;;;;;5.00;4.07;;;21.40;76.90;;;;;;5001174;28;96523;-71
2022/04/27 06:23:05;;;;;;;;;;;21.40;76.90;;;;;;4988601;28;97034;-72
2022/04/27 06:25:39;;;;;;;4.85;3.47;;;21.50;76.70;;;;;;5005203;28;95837;-72
2022/04/27 06:28:19;;;;;;;4.72;3.80;;;21.40;77.80;;;;;;4997423;28;96033;-74
2022/04/27 06:30:53;;;;;;;4.57;3.40;;;21.40;78.50;;;;;;4977565;28;96748;-72
2022/04/27 06:33:24;;;;;;;4.45;3.80;;;21.40;78.10;;;;;;5001876;28;96033;-73
2022/04/27 06:35:58;;;;;;;6.15;3.30;;;21.30;78.10;;;;;;5004229;28;97241;-73
2022/04/27 06:38:31;;;;;;;4.65;3.83;;;21.40;78.20;;;;;;5006455;28;95746;-73
2022/04/27 06:41:22;;;;;;;4.43;3.35;;;21.30;78.40;;;;;;4990849;28;97556;-73
2022/04/27 06:44:15;;;;;;;5.80;3.60;;;21.40;78.50;;;;;;5002483;28;95646;-72
2022/04/27 06:47:03;;;;;;;4.20;3.47;;;21.50;74.80;;;;;;4997799;28;95853;-73
2022/04/27 06:49:54;;;;;;;4.50;3.50;;;21.50;74.90;;;;;;4975597;28;95890;-72
2022/04/27 06:52:47;;;;;;;4.28;3.88;;;21.50;74.80;;;;;;5003582;28;95282;-72
2022/04/27 06:55:37;;;;;;;6.32;4.30;;;21.40;74.30;;;;;;5003262;28;95960;-73
2022/04/27 06:58:25;;;;;;;4.72;3.50;;;21.30;75.20;;;;;;5002840;28;95276;-72
2022/04/27 07:01:06;;;;;;;6.23;4.00;;;21.10;73.00;;;;;;4980884;28;96046;-72
2022/04/27 07:03:38;;;;;;;4.38;3.50;;;20.90;76.40;;;;;;4988374;28;99787;-72
2022/04/27 07:06:09;;;;;;;5.18;3.90;;;20.70;77.00;;;;;;4976753;28;96079;-72
2022/04/27 07:08:40;;;;;;;;;;;20.50;76.40;;;;;;4988818;28;96042;-73
2022/04/27 07:11:10;;;;;;;5.50;3.45;;;20.40;77.90;;;;;;5005883;28;95847;-72
2022/04/27 07:13:40;;;;;;;4.32;3.45;;;20.30;77.90;;;;;;4990887;28;96377;-73
2022/04/27 07:16:10;;;;;;;4.68;3.95;;;20.20;78.10;;;;;;4997326;28;97584;-74
2022/04/27 07:18:42;;;;;;;3.85;3.55;;;20.10;79.10;;;;;;4974974;28;96050;-73
2022/04/27 07:21:13;;;;;;;4.38;3.38;;;20.00;79.50;;;;;;4991043;28;96104;-73
2022/04/27 07:23:44;;;;;;;5.57;3.73;;;19.80;79.80;;;;;;5001571;28;97089;-73
2022/04/27 07:26:15;;;;;;;7.00;3.88;;;19.70;80.10;;;;;;5004384;28;95532;-73
2022/04/27 07:28:49;;;;;;;5.60;3.65;;;19.80;82.50;;;;;;5005694;28;95640;-74
2022/04/27 07:31:19;;;;;;;5.47;3.83;;;20.20;81.70;;;;;;4975781;28;96067;-74
2022/04/27 07:33:49;;;;;;;5.35;4.20;;;20.60;80.20;;;;;;4966792;28;98740;-72
2022/04/27 07:36:21;;;;;;;7.68;3.78;;;20.90;79.40;;;;;;5001555;28;95878;-72
2022/04/27 07:38:59;;;;;;;3.63;3.20;;;21.00;76.80;;;;;;5008240;28;96085;-73
2022/04/27 07:41:30;;;;;;;4.57;3.03;;;21.20;78.20;;;;;;5006317;28;96424;-71
2022/04/27 07:44:00;;;;;;;13.30;4.38;;;21.20;77.80;;;;;;5005344;28;96162;-72
2022/04/27 07:46:30;;;;;;;7.65;3.83;;;21.30;77.90;;;;;;4998434;28;97766;-74
2022/04/27 07:49:00;;;;;;;5.38;3.80;;;21.40;77.70;;;;;;5004971;28;96433;-72
2022/04/27 07:51:30;;;;;;;4.00;3.58;;;21.40;77.60;;;;;;4994402;28;96560;-74
2022/04/27 07:54:01;;;;;;;4.70;3.58;;;21.40;77.30;;;;;;4988221;28;95878;-73
2022/04/27 07:56:33;;;;;;;5.40;3.83;;;21.50;77.30;;;;;;5008523;28;95930;-74
2022/04/27 07:59:03;;;;;;;6.93;3.97;;;21.40;77.40;;;;;;5007060;28;96285;-74
2022/04/27 08:01:34;;;;;;;3.67;3.10;;;21.50;77.30;;;;;;4998666;28;96591;-74
2022/04/27 08:04:06;;;;;;;5.20;3.45;;;21.50;77.20;;;;;;5006267;28;95802;-74
2022/04/27 08:06:36;;;;;;;;;;;21.50;77.10;;;;;;4993963;28;95703;-74
2022/04/27 08:09:08;;;;;;;8.15;3.40;;;21.60;77.20;;;;;;5002288;28;96410;-76
2022/04/27 08:11:41;;;;;;;5.82;3.38;;;21.60;77.40;;;;;;5003406;28;96265;-75
2022/04/27 08:14:12;;;;;;;6.53;3.47;;;21.60;77.40;;;;;;4970115;28;95867;-72
2022/04/27 08:16:44;;;;;;;4.35;2.88;;;21.60;77.30;;;;;;4998785;28;95938;-73
2022/04/27 08:19:15;;;;;;;6.68;4.40;;;21.70;77.40;;;;;;5005942;28;96173;-78
2022/04/27 08:21:48;;;;;;;4.90;3.83;;;21.60;77.30;;;;;;4977982;28;96308;-77
2022/04/27 08:24:21;;;;;;;9.73;4.93;;;21.70;77.60;;;;;;5003813;28;95821;-78
2022/04/27 08:26:53;;;;;;;8.52;4.82;;;21.70;77.70;;;;;;5001550;28;96005;-77
2022/04/27 08:29:24;;;;;;;7.47;5.55;;;21.70;78.10;;;;;;4989428;28;96130;-77
2022/04/27 08:31:54;;;;;;;8.63;5.18;;;21.70;78.40;;;;;;4989008;28;95541;-75
2022/04/27 08:34:26;;;;;;;7.65;6.25;;;21.70;78.00;;;;;;5004419;28;98561;-74
2022/04/27 08:36:58;;;;;;;10.82;6.70;;;21.70;78.20;;;;;;5004696;28;97822;-75
2022/04/27 08:39:29;;;;;;;8.82;7.05;;;21.70;78.40;;;;;;5005866;28;96030;-75
2022/04/27 08:41:59;;;;;;;;;;;21.70;78.80;;;;;;4996963;28;95960;-74
2022/04/27 08:44:29;;;;;;;8.27;6.00;;;21.70;78.30;;;;;;5005176;28;95861;-76
2022/04/27 08:47:02;;;;;;;8.50;5.70;;;21.60;78.30;;;;;;4964769;28;97246;-76
2022/04/27 08:49:35;;;;;;;8.27;5.63;;;21.60;78.50;;;;;;5005745;28;95775;-75
2022/04/27 08:52:06;;;;;;;7.40;6.38;;;21.50;78.60;;;;;;5006449;28;95720;-76
2022/04/27 08:54:37;;;;;;;8.80;6.25;;;21.50;78.80;;;;;;5008705;28;95875;-75
2022/04/27 08:57:08;;;;;;;8.25;6.32;;;21.50;78.80;;;;;;5007864;28;95981;-74
2022/04/27 08:59:38;;;;;;;6.70;5.13;;;21.50;78.90;;;;;;5009432;28;94907;-75
2022/04/27 09:02:25;;;;;;;8.68;5.53;;;21.40;78.80;;;;;;5003541;28;95957;-76
2022/04/27 09:05:17;;;;;;;7.15;5.32;;;21.40;79.00;;;;;;5014263;28;95960;-76
2022/04/27 09:07:50;;;;;;;6.80;5.15;;;21.40;79.00;;;;;;5011694;28;96613;-74
2022/04/27 09:10:25;;;;;;;7.50;5.82;;;21.30;79.00;;;;;;5015398;28;95801;-75
2022/04/27 09:12:59;;;;;;;8.60;5.75;;;21.30;79.10;;;;;;5009402;28;96339;-75
2022/04/27 09:15:30;;;;;;;9.02;5.82;;;21.30;79.20;;;;;;4997939;28;96053;-75
2022/04/27 09:21:02;;;;;;;8.60;5.05;;;21.30;79.30;;;;;;5006251;28;95814;-74
2022/04/27 09:23:38;;;;;;;9.38;6.20;;;21.20;79.20;;;;;;4989127;28;96156;-74
2022/04/27 09:26:31;;;;;;;7.05;5.75;;;21.20;79.30;;;;;;5005259;28;95871;-75
2022/04/27 09:29:03;;;;;;;6.90;4.82;;;21.20;79.40;;;;;;5009017;28;95671;-75
2022/04/27 09:31:34;;;;;;;;;;;21.20;80.00;;;;;;4973608;28;96086;-74
2022/04/27 09:34:27;;;;;;;9.18;5.50;;;21.10;79.40;;;;;;4974957;28;97948;-74
2022/04/27 09:37:02;;;;;;;8.48;5.45;;;21.10;79.50;;;;;;5007973;28;96428;-75
2022/04/27 09:39:34;;;;;;;5.30;4.57;;;21.20;78.50;;;;;;5009330;28;95852;-74
2022/04/27 09:42:11;;;;;;;8.77;5.75;;;21.20;79.60;;;;;;5009331;28;96202;-74
2022/04/27 09:44:42;;;;;;;9.20;5.18;;;21.20;79.70;;;;;;5000910;28;96751;-74
2022/04/27 09:47:21;;;;;;;7.45;5.30;;;21.20;79.30;;;;;;4994201;28;95938;-74
2022/04/27 09:49:55;;;;;;;7.65;5.47;;;21.20;79.10;;;;;;5003974;28;96647;-75
2022/04/27 09:52:27;;;;;;;7.50;4.90;;;21.20;79.10;;;;;;4995855;28;95687;-74
2022/04/27 09:55:02;;;;;;;10.25;5.53;;;21.20;79.20;;;;;;5008418;28;96093;-74
2022/04/27 09:57:37;;;;;;;6.63;5.32;;;21.20;79.20;;;;;;4990800;28;95848;-74
2022/04/27 10:00:12;;;;;;;6.25;4.47;;;21.20;79.10;;;;;;5007352;28;96941;-75
2022/04/27 10:02:46;;;;;;;5.45;4.45;;;21.20;79.10;;;;;;4997996;28;96090;-74
2022/04/27 10:05:16;;;;;;;5.57;5.00;;;21.20;79.00;;;;;;5005748;28;96288;-75
2022/04/27 10:07:51;;;;;;;8.18;5.68;;;21.20;79.00;;;;;;5004044;28;95927;-74
2022/04/27 10:10:24;;;;;;;9.15;5.00;;;21.10;79.70;;;;;;5007372;28;95718;-74
2022/04/27 10:12:55;;;;;;;7.85;4.47;;;21.10;79.00;;;;;;4987898;28;96505;-75
2022/04/27 10:15:28;;;;;;;7.03;5.25;;;21.10;79.10;;;;;;4996168;28;95805;-74
2022/04/27 10:18:00;;;;;;;6.13;4.57;;;21.10;79.10;;;;;;5006437;28;95960;-74
2022/04/27 10:20:33;;;;;;;6.22;4.85;;;21.10;79.10;;;;;;5009210;28;95805;-75
2022/04/27 10:23:22;;;;;;;6.53;5.00;;;21.10;79.10;;;;;;5010171;28;96126;-74
2022/04/27 10:26:18;;;;;;;6.50;5.63;;;21.10;79.00;;;;;;5009075;28;95882;-74
2022/04/27 10:28:51;;;;;;;6.75;5.30;;;21.10;79.00;;;;;;5008511;28;95923;-74
2022/04/27 10:31:43;;;;;;;6.63;5.07;;;21.10;78.90;;;;;;4991756;28;96478;-74
2022/04/27 10:34:23;;;;;;;7.20;5.15;;;21.10;78.90;;;;;;5004176;28;95883;-74
2022/04/27 10:36:56;;;;;;;7.18;5.53;;;21.10;78.90;;;;;;5008513;28;95714;-74
2022/04/27 10:39:29;;;;;;;8.32;5.75;;;21.10;79.00;;;;;;5009038;28;95803;-74
2022/04/27 10:42:06;;;;;;;9.02;5.65;;;21.10;79.00;;;;;;5007730;28;95317;-74
2022/04/27 10:44:53;;;;;;;8.65;5.28;;;21.10;79.10;;;;;;5007772;28;95845;-74
2022/04/27 10:47:24;;;;;;;5.35;4.78;;;21.00;79.30;;;;;;4978130;28;99795;-73
2022/04/27 10:50:14;;;;;;;8.20;6.03;;;21.00;79.50;;;;;;5003477;28;98836;-73
2022/04/27 10:52:55;;;;;;;9.93;6.05;;;21.00;79.60;;;;;;5005686;28;96173;-74
2022/04/27 10:55:37;;;;;;;7.80;5.78;;;20.90;79.50;;;;;;5002546;28;96773;-73
2022/04/27 10:58:34;;;;;;;8.15;5.82;;;20.90;79.60;;;;;;5004227;28;95681;-73
2022/04/27 11:01:25;;;;;;;7.22;5.90;;;20.90;79.60;;;;;;4975594;28;96085;-73
2022/04/27 11:04:01;;;;;;;9.38;6.88;;;20.90;79.60;;;;;;4985377;28;95934;-73
2022/04/27 11:07:12;;;;;;;10.20;6.47;;;20.90;79.60;;;;;;5005443;28;95717;-73
2022/04/27 11:10:04;;;;;;;10.43;6.22;;;20.90;79.60;;;;;;4965808;28;95339;-73
2022/04/27 11:12:39;;;;;;;11.18;7.40;;;20.80;79.40;;;;;;5000377;28;95831;-74
2022/04/27 11:15:11;;;;;;;9.10;6.85;;;20.80;79.40;;;;;;4991100;28;97295;-77
2022/04/27 11:17:43;;;;;;;10.63;6.90;;;20.80;79.20;;;;;;4994221;28;96150;-76
2022/04/27 11:20:27;;;;;;;;;;;20.80;79.20;;;;;;5010987;28;95190;-77
2022/04/27 11:23:01;;;;;;;9.35;6.72;;;20.80;79.10;;;;;;5007134;28;96927;-74
2022/04/27 11:25:35;;;;;;;7.75;6.90;;;20.80;79.00;;;;;;5009552;28;95848;-74
2022/04/27 11:28:08;;;;;;;8.65;6.30;;;20.80;78.90;;;;;;5012755;28;95353;-74
2022/04/27 11:30:39;;;;;;;8.85;6.65;;;20.80;78.90;;;;;;4992535;28;98126;-73
2022/04/27 11:33:11;;;;;;;10.10;7.20;;;20.80;78.70;;;;;;4999190;28;96766;-74
2022/04/27 11:35:45;;;;;;;;;;;20.80;78.90;;;;;;5009359;28;95803;-74
2022/04/27 11:38:33;;;;;;;8.70;6.97;;;20.80;79.30;;;;;;5006924;28;95880;-74
2022/04/27 11:41:14;;;;;;;8.85;6.80;;;20.70;79.50;;;;;;4989596;28;95899;-74
2022/04/27 11:43:49;;;;;;;11.63;7.97;;;20.70;79.90;;;;;;5007750;28;95872;-74
2022/04/27 11:46:19;;;;;;;9.63;7.50;;;20.70;80.00;;;;;;4982840;28;97684;-74
2022/04/27 11:48:53;;;;;;;8.93;7.30;;;20.70;80.30;;;;;;5004456;28;95372;-74
2022/04/27 11:51:24;;;;;;;9.60;7.88;;;20.70;80.20;;;;;;4990230;28;95991;-74
2022/04/27 11:53:54;;;;;;;9.67;7.10;;;20.70;80.50;;;;;;5010277;28;96041;-74
2022/04/27 11:56:39;;;;;;;11.65;8.02;;;20.70;80.30;;;;;;5009028;28;96056;-74
2022/04/27 11:59:09;;;;;;;9.02;7.60;;;20.60;80.60;;;;;;5004203;28;95309;-74
2022/04/27 12:01:51;;;;;;;11.40;7.97;;;20.60;80.70;;;;;;4999819;28;98215;-74
2022/04/27 12:04:22;;;;;;;8.82;7.70;;;20.60;80.60;;;;;;4992056;28;96363;-73
2022/04/27 12:06:55;;;;;;;9.77;7.82;;;20.60;81.20;;;;;;5010936;28;95742;-73
2022/04/27 12:09:25;;;;;;;11.82;7.97;;;20.50;80.50;;;;;;5014089;28;95471;-73
2022/04/27 12:12:07;;;;;;;9.75;7.85;;;20.50;80.50;;;;;;5014178;28;95575;-73
2022/04/27 12:14:41;;;;;;;11.27;8.57;;;20.50;80.60;;;;;;5014542;28;95993;-74
2022/04/27 12:17:45;;;;;;;9.52;7.93;;;20.50;80.60;;;;;;5006486;28;95879;-74
2022/04/27 12:20:40;;;;;;;8.98;7.05;;;20.50;80.70;;;;;;5012784;28;96349;-73
2022/04/27 12:23:24;;;;;;;9.15;7.13;;;20.50;80.70;;;;;;5011172;28;96882;-73
2022/04/27 12:25:58;;;;;;;11.60;8.50;;;20.40;80.70;;;;;;4969952;28;98643;-74
2022/04/27 12:28:34;;;;;;;10.73;8.05;;;20.40;80.70;;;;;;4984913;28;96118;-73
2022/04/27 12:31:06;;;;;;;10.23;7.85;;;20.40;80.80;;;;;;4999940;28;95825;-74
2022/04/27 12:33:45;;;;;;;9.70;7.47;;;20.40;81.00;;;;;;5007362;28;95864;-74
2022/04/27 12:39:26;;;;;;;11.53;8.27;;;20.50;80.70;;;;;;5007987;28;95881;-74
2022/04/27 12:42:09;;;;;;;12.68;8.25;;;20.50;80.60;;;;;;5009505;28;95837;-72
2022/04/27 12:44:45;;;;;;;10.45;8.25;;;20.40;80.70;;;;;;4989450;28;95505;-75
2022/04/27 12:47:16;;;;;;;8.55;7.25;;;20.50;80.90;;;;;;4974858;28;96537;-71
2022/04/27 12:49:51;;;;;;;10.88;7.82;;;20.60;80.90;;;;;;5003642;28;95799;-75
2022/04/27 12:52:36;;;;;;;11.27;8.18;;;20.60;80.60;;;;;;4996361;28;95809;-73
2022/04/27 12:55:12;;;;;;;8.77;7.45;;;20.70;80.70;;;;;;5012148;28;95645;-73
2022/04/27 12:57:47;;;;;;;9.48;7.45;;;20.70;80.50;;;;;;5009252;28;97021;-73
2022/04/27 13:00:23;;;;;;;8.90;7.35;;;20.80;80.50;;;;;;5007490;28;96300;-73
2022/04/27 13:02:53;;;;;;;9.07;7.35;;;20.80;80.20;;;;;;5006035;28;95758;-73
2022/04/27 13:05:24;;;;;;;9.35;7.70;;;20.80;80.30;;;;;;5013122;28;96032;-75
2022/04/27 13:07:55;;;;;;;9.52;7.05;;;20.90;80.20;;;;;;4976572;28;95675;-74
2022/04/27 13:13:17;;;;;;;9.02;7.13;;;21.00;80.10;;;;;;5009764;28;95764;-73
2022/04/27 13:15:49;;;;;;;8.13;6.55;;;21.00;80.00;;;;;;4985241;28;96161;-73
2022/04/27 13:18:21;;;;;;;9.88;7.10;;;21.00;79.90;;;;;;5003996;28;95940;-73
2022/04/27 13:20:55;;;;;;;9.45;7.80;;;21.10;79.90;;;;;;5004919;28;97011;-73
2022/04/27 13:23:25;;;;;;;7.28;6.22;;;21.10;79.90;;;;;;5006203;28;95925;-72
2022/04/27 13:25:57;;;;;;;9.02;6.93;;;21.20;79.80;;;;;;5006808;28;96041;-73
2022/04/27 13:28:31;;;;;;;7.20;6.00;;;21.20;79.60;;;;;;5008736;28;95830;-73
2022/04/27 13:31:02;;;;;;;;;;;21.20;79.50;;;;;;4997860;28;96011;-73
2022/04/27 13:33:32;;;;;;;8.70;6.63;;;21.30;79.50;;;;;;5004726;28;96953;-73
2022/04/27 13:36:03;;;;;;;8.23;6.88;;;21.30;79.30;;;;;;5007955;28;95454;-74
2022/04/27 13:38:35;;;;;;;8.65;6.30;;;21.40;79.20;;;;;;5011791;28;97064;-72
2022/04/27 13:41:06;;;;;;;;;;;21.40;79.00;;;;;;5007427;28;95514;-73
2022/04/27 13:43:38;;;;;;;;;;;21.50;78.70;;;;;;5007878;28;95290;-73
2022/04/27 13:46:12;;;;;;;8.55;6.88;;;21.50;78.70;;;;;;5004774;28;95278;-73
2022/04/27 13:48:44;;;;;;;12.57;9.30;;;21.50;78.70;;;;;;5004201;28;95895;-73
2022/04/27 13:51:17;;;;;;;9.65;8.35;;;21.50;77.70;;;;;;5000568;28;95866;-73
2022/04/27 13:53:48;;;;;;;9.45;8.10;;;21.30;77.90;;;;;;5000759;28;95737;-73
2022/04/27 13:56:19;;;;;;;11.52;8.48;;;21.20;78.10;;;;;;5005125;28;95372;-72